sensor_id;sensor_type;location;lat;lon;timestamp;P1;durP1;ratioP1;P2;durP2;ratioP2
3589;SDS011;1809;48.470;9.226;2024-01-15T00:00:10;15.37;;;8.40;;
3589;SDS011;1809;48.470;9.226;2024-01-15T00:02:36;15.97;;;9.03;;
3589;SDS011;1809;48.470;9.226;2024-01-15T00:05:02;13.63;;;7.33;;
3589;SDS011;1809;48.470;9.226;2024-01-15T00:07:27;16.20;;;6.17;;
3589;SDS011;1809;48.470;9.226;2024-01-15T00:09:52;15.87;;;7.10;;
3589;SDS011;1809;48.470;9.226;2024-01-15T00:12:18;17.17;;;8.43;;
3589;SDS011;1809;48.470;9.226;2024-01-15T00:14:43;15.97;;;9.30;;
3589;SDS011;1809;48.470;9.226;2024-01-15T00:17:08;18.60;;;8.20;;
3589;SDS011;1809;48.470;9.226;2024-01-15T00:19:33;12.63;;;6.30;;
3589;SDS011;1809;48.470;9.226;2024-01-15T00:21:59;13.27;;;7.37;;
3589;SDS011;1809;48.470;9.226;2024-01-15T00:24:24;12.40;;;7.30;;
3589;SDS011;1809;48.470;9.226;2024-01-15T00:26:50;9.63;;;5.50;;
3589;SDS011;1809;48.470;9.226;2024-01-15T00:29:15;15.87;;;7.70;;
3589;SDS011;1809;48.470;9.226;2024-01-15T00:31:40;15.27;;;7.10;;
3589;SDS011;1809;48.470;9.226;2024-01-15T00:34:06;13.50;;;6.80;;
3589;SDS011;1809;48.470;9.226;2024-01-15T00:36:31;17.23;;;8.17;;
3589;SDS011;1809;48.470;9.226;2024-01-15T00:38:56;15.00;;;7.93;;
3589;SDS011;1809;48.470;9.226;2024-01-15T00:41:22;20.37;;;7.93;;
3589;SDS011;1809;48.470;9.226;2024-01-15T00:43:47;15.23;;;7.67;;
3589;SDS011;1809;48.470;9.226;2024-01-15T00:46:16;18.33;;;9.20;;
3589;SDS011;1809;48.470;9.226;2024-01-15T00:48:41;19.40;;;7.67;;
3589;SDS011;1809;48.470;9.226;2024-01-15T00:51:07;16.30;;;8.03;;
3589;SDS011;1809;48.470;9.226;2024-01-15T00:53:32;17.83;;;8.57;;
3589;SDS011;1809;48.470;9.226;2024-01-15T00:55:58;19.73;;;8.70;;
3589;SDS011;1809;48.470;9.226;2024-01-15T00:58:23;20.37;;;8.90;;
3589;SDS011;1809;48.470;9.226;2024-01-15T01:00:48;16.70;;;7.37;;
3589;SDS011;1809;48.470;9.226;2024-01-15T01:03:14;23.20;;;8.80;;
3589;SDS011;1809;48.470;9.226;2024-01-15T01:05:39;23.17;;;9.07;;
3589;SDS011;1809;48.470;9.226;2024-01-15T01:08:04;15.73;;;8.10;;
3589;SDS011;1809;48.470;9.226;2024-01-15T01:10:30;16.37;;;8.23;;
3589;SDS011;1809;48.470;9.226;2024-01-15T01:12:55;21.40;;;9.03;;
3589;SDS011;1809;48.470;9.226;2024-01-15T01:15:21;14.77;;;7.63;;
3589;SDS011;1809;48.470;9.226;2024-01-15T01:17:46;18.40;;;9.63;;
3589;SDS011;1809;48.470;9.226;2024-01-15T01:20:11;12.60;;;6.77;;
3589;SDS011;1809;48.470;9.226;2024-01-15T01:22:37;15.47;;;7.50;;
3589;SDS011;1809;48.470;9.226;2024-01-15T01:25:02;14.70;;;7.40;;
3589;SDS011;1809;48.470;9.226;2024-01-15T01:27:28;13.40;;;7.27;;
3589;SDS011;1809;48.470;9.226;2024-01-15T01:29:53;15.57;;;6.90;;
3589;SDS011;1809;48.470;9.226;2024-01-15T01:32:19;10.53;;;6.83;;
3589;SDS011;1809;48.470;9.226;2024-01-15T01:34:45;12.70;;;6.60;;
3589;SDS011;1809;48.470;9.226;2024-01-15T01:37:10;13.07;;;6.43;;
3589;SDS011;1809;48.470;9.226;2024-01-15T01:39:39;12.37;;;6.50;;
3589;SDS011;1809;48.470;9.226;2024-01-15T01:42:05;12.87;;;6.67;;
3589;SDS011;1809;48.470;9.226;2024-01-15T01:44:31;14.00;;;8.00;;
3589;SDS011;1809;48.470;9.226;2024-01-15T01:46:57;13.30;;;6.63;;
3589;SDS011;1809;48.470;9.226;2024-01-15T01:49:24;14.67;;;7.50;;
3589;SDS011;1809;48.470;9.226;2024-01-15T01:51:50;12.33;;;6.77;;
3589;SDS011;1809;48.470;9.226;2024-01-15T01:54:16;14.07;;;6.50;;
3589;SDS011;1809;48.470;9.226;2024-01-15T01:56:42;11.33;;;6.40;;
3589;SDS011;1809;48.470;9.226;2024-01-15T01:59:08;13.40;;;7.00;;
3589;SDS011;1809;48.470;9.226;2024-01-15T02:01:36;14.73;;;7.07;;
3589;SDS011;1809;48.470;9.226;2024-01-15T02:04:01;16.83;;;7.53;;
3589;SDS011;1809;48.470;9.226;2024-01-15T02:06:28;14.90;;;6.63;;
3589;SDS011;1809;48.470;9.226;2024-01-15T02:08:54;13.30;;;6.30;;
3589;SDS011;1809;48.470;9.226;2024-01-15T02:11:20;16.80;;;7.60;;
3589;SDS011;1809;48.470;9.226;2024-01-15T02:13:46;14.30;;;6.90;;
3589;SDS011;1809;48.470;9.226;2024-01-15T02:16:12;11.90;;;6.13;;
3589;SDS011;1809;48.470;9.226;2024-01-15T02:18:41;14.67;;;6.30;;
3589;SDS011;1809;48.470;9.226;2024-01-15T02:21:07;15.13;;;6.57;;
3589;SDS011;1809;48.470;9.226;2024-01-15T02:23:33;15.67;;;6.87;;
3589;SDS011;1809;48.470;9.226;2024-01-15T02:25:58;18.10;;;6.50;;
3589;SDS011;1809;48.470;9.226;2024-01-15T02:28:24;12.83;;;5.87;;
3589;SDS011;1809;48.470;9.226;2024-01-15T02:30:49;15.30;;;7.20;;
3589;SDS011;1809;48.470;9.226;2024-01-15T02:33:14;13.70;;;7.00;;
3589;SDS011;1809;48.470;9.226;2024-01-15T02:35:40;18.20;;;7.70;;
3589;SDS011;1809;48.470;9.226;2024-01-15T02:38:06;13.90;;;6.30;;
3589;SDS011;1809;48.470;9.226;2024-01-15T02:40:31;12.30;;;6.37;;
3589;SDS011;1809;48.470;9.226;2024-01-15T02:42:57;15.97;;;6.50;;
3589;SDS011;1809;48.470;9.226;2024-01-15T02:45:23;14.80;;;7.40;;
3589;SDS011;1809;48.470;9.226;2024-01-15T02:47:48;11.73;;;5.90;;
3589;SDS011;1809;48.470;9.226;2024-01-15T02:50:14;16.27;;;7.53;;
3589;SDS011;1809;48.470;9.226;2024-01-15T02:52:39;13.77;;;6.47;;
3589;SDS011;1809;48.470;9.226;2024-01-15T02:55:06;12.03;;;6.60;;
3589;SDS011;1809;48.470;9.226;2024-01-15T02:57:31;14.33;;;6.50;;
3589;SDS011;1809;48.470;9.226;2024-01-15T02:59:57;16.50;;;6.73;;
3589;SDS011;1809;48.470;9.226;2024-01-15T03:02:22;13.20;;;6.70;;
3589;SDS011;1809;48.470;9.226;2024-01-15T03:04:47;12.90;;;6.20;;
3589;SDS011;1809;48.470;9.226;2024-01-15T03:07:13;12.30;;;5.60;;
3589;SDS011;1809;48.470;9.226;2024-01-15T03:09:38;14.63;;;5.90;;
3589;SDS011;1809;48.470;9.226;2024-01-15T03:12:03;20.10;;;6.20;;
3589;SDS011;1809;48.470;9.226;2024-01-15T03:14:29;9.17;;;5.30;;
3589;SDS011;1809;48.470;9.226;2024-01-15T03:16:54;9.30;;;5.20;;
3589;SDS011;1809;48.470;9.226;2024-01-15T03:19:20;11.17;;;5.00;;
3589;SDS011;1809;48.470;9.226;2024-01-15T03:21:45;15.60;;;5.50;;
3589;SDS011;1809;48.470;9.226;2024-01-15T03:24:11;11.53;;;5.83;;
3589;SDS011;1809;48.470;9.226;2024-01-15T03:26:36;9.70;;;5.23;;
3589;SDS011;1809;48.470;9.226;2024-01-15T03:29:02;16.43;;;6.87;;
3589;SDS011;1809;48.470;9.226;2024-01-15T03:31:27;14.20;;;5.93;;
3589;SDS011;1809;48.470;9.226;2024-01-15T03:33:52;11.83;;;6.40;;
3589;SDS011;1809;48.470;9.226;2024-01-15T03:36:18;13.90;;;7.50;;
3589;SDS011;1809;48.470;9.226;2024-01-15T03:38:43;10.07;;;6.30;;
3589;SDS011;1809;48.470;9.226;2024-01-15T03:41:08;19.37;;;7.20;;
3589;SDS011;1809;48.470;9.226;2024-01-15T03:43:34;12.80;;;6.70;;
3589;SDS011;1809;48.470;9.226;2024-01-15T03:45:59;16.07;;;6.97;;
3589;SDS011;1809;48.470;9.226;2024-01-15T03:48:25;15.93;;;7.20;;
3589;SDS011;1809;48.470;9.226;2024-01-15T03:50:50;16.23;;;7.63;;
3589;SDS011;1809;48.470;9.226;2024-01-15T03:53:15;12.40;;;6.30;;
3589;SDS011;1809;48.470;9.226;2024-01-15T03:55:41;13.40;;;6.23;;
3589;SDS011;1809;48.470;9.226;2024-01-15T03:58:07;11.27;;;5.83;;
3589;SDS011;1809;48.470;9.226;2024-01-15T04:00:32;16.70;;;7.90;;
3589;SDS011;1809;48.470;9.226;2024-01-15T04:02:57;18.07;;;8.17;;
3589;SDS011;1809;48.470;9.226;2024-01-15T04:05:23;17.30;;;7.63;;
3589;SDS011;1809;48.470;9.226;2024-01-15T04:07:48;14.37;;;7.70;;
3589;SDS011;1809;48.470;9.226;2024-01-15T04:10:13;14.67;;;7.50;;
3589;SDS011;1809;48.470;9.226;2024-01-15T04:12:39;14.93;;;7.30;;
3589;SDS011;1809;48.470;9.226;2024-01-15T04:15:04;17.67;;;7.93;;
3589;SDS011;1809;48.470;9.226;2024-01-15T04:17:30;12.57;;;6.67;;
3589;SDS011;1809;48.470;9.226;2024-01-15T04:19:55;16.20;;;8.20;;
3589;SDS011;1809;48.470;9.226;2024-01-15T04:22:20;19.27;;;7.10;;
3589;SDS011;1809;48.470;9.226;2024-01-15T04:24:46;15.53;;;7.40;;
3589;SDS011;1809;48.470;9.226;2024-01-15T04:27:11;16.20;;;7.40;;
3589;SDS011;1809;48.470;9.226;2024-01-15T04:29:39;17.07;;;7.73;;
3589;SDS011;1809;48.470;9.226;2024-01-15T04:32:05;18.90;;;8.30;;
3589;SDS011;1809;48.470;9.226;2024-01-15T04:34:30;20.70;;;8.90;;
3589;SDS011;1809;48.470;9.226;2024-01-15T04:36:56;15.20;;;7.53;;
3589;SDS011;1809;48.470;9.226;2024-01-15T04:39:21;18.83;;;7.70;;
3589;SDS011;1809;48.470;9.226;2024-01-15T04:41:47;20.00;;;7.97;;
3589;SDS011;1809;48.470;9.226;2024-01-15T04:44:12;18.87;;;8.73;;
3589;SDS011;1809;48.470;9.226;2024-01-15T04:46:38;19.90;;;9.07;;
3589;SDS011;1809;48.470;9.226;2024-01-15T04:49:03;15.30;;;8.50;;
3589;SDS011;1809;48.470;9.226;2024-01-15T04:51:28;19.77;;;8.70;;
3589;SDS011;1809;48.470;9.226;2024-01-15T04:53:54;14.90;;;7.23;;
3589;SDS011;1809;48.470;9.226;2024-01-15T04:56:19;22.17;;;9.77;;
3589;SDS011;1809;48.470;9.226;2024-01-15T04:58:44;20.30;;;8.97;;
3589;SDS011;1809;48.470;9.226;2024-01-15T05:01:10;14.60;;;8.30;;
3589;SDS011;1809;48.470;9.226;2024-01-15T05:03:35;18.87;;;9.20;;
3589;SDS011;1809;48.470;9.226;2024-01-15T05:06:00;22.67;;;8.70;;
3589;SDS011;1809;48.470;9.226;2024-01-15T05:08:26;18.23;;;8.60;;
3589;SDS011;1809;48.470;9.226;2024-01-15T05:10:51;19.33;;;8.03;;
3589;SDS011;1809;48.470;9.226;2024-01-15T05:13:16;18.13;;;7.93;;
3589;SDS011;1809;48.470;9.226;2024-01-15T05:15:42;19.20;;;8.67;;
3589;SDS011;1809;48.470;9.226;2024-01-15T05:18:07;16.27;;;8.13;;
3589;SDS011;1809;48.470;9.226;2024-01-15T05:20:33;19.80;;;9.30;;
3589;SDS011;1809;48.470;9.226;2024-01-15T05:22:58;26.57;;;9.33;;
3589;SDS011;1809;48.470;9.226;2024-01-15T05:25:23;20.77;;;10.23;;
3589;SDS011;1809;48.470;9.226;2024-01-15T05:27:49;12.50;;;7.33;;
3589;SDS011;1809;48.470;9.226;2024-01-15T05:30:14;22.13;;;7.93;;
3589;SDS011;1809;48.470;9.226;2024-01-15T05:32:40;19.50;;;8.70;;
3589;SDS011;1809;48.470;9.226;2024-01-15T05:35:05;17.73;;;8.83;;
3589;SDS011;1809;48.470;9.226;2024-01-15T05:37:31;17.37;;;8.73;;
3589;SDS011;1809;48.470;9.226;2024-01-15T05:39:56;17.07;;;8.07;;
3589;SDS011;1809;48.470;9.226;2024-01-15T05:42:21;20.13;;;9.80;;
3589;SDS011;1809;48.470;9.226;2024-01-15T05:44:47;18.87;;;9.80;;
3589;SDS011;1809;48.470;9.226;2024-01-15T05:47:12;16.10;;;8.60;;
3589;SDS011;1809;48.470;9.226;2024-01-15T05:49:37;19.17;;;8.57;;
3589;SDS011;1809;48.470;9.226;2024-01-15T05:52:03;16.33;;;7.90;;
3589;SDS011;1809;48.470;9.226;2024-01-15T05:54:29;17.30;;;7.70;;
3589;SDS011;1809;48.470;9.226;2024-01-15T05:56:54;17.30;;;8.50;;
3589;SDS011;1809;48.470;9.226;2024-01-15T05:59:19;13.27;;;7.70;;
3589;SDS011;1809;48.470;9.226;2024-01-15T06:01:45;15.20;;;8.20;;
3589;SDS011;1809;48.470;9.226;2024-01-15T06:04:10;16.37;;;7.93;;
3589;SDS011;1809;48.470;9.226;2024-01-15T06:06:35;15.10;;;8.73;;
3589;SDS011;1809;48.470;9.226;2024-01-15T06:09:01;13.43;;;7.97;;
3589;SDS011;1809;48.470;9.226;2024-01-15T06:11:30;12.23;;;7.23;;
3589;SDS011;1809;48.470;9.226;2024-01-15T06:13:56;14.60;;;8.70;;
3589;SDS011;1809;48.470;9.226;2024-01-15T06:16:21;19.10;;;7.93;;
3589;SDS011;1809;48.470;9.226;2024-01-15T06:18:48;13.53;;;7.70;;
3589;SDS011;1809;48.470;9.226;2024-01-15T06:21:14;14.30;;;7.40;;
3589;SDS011;1809;48.470;9.226;2024-01-15T06:23:40;18.53;;;9.40;;
3589;SDS011;1809;48.470;9.226;2024-01-15T06:26:05;18.53;;;9.33;;
3589;SDS011;1809;48.470;9.226;2024-01-15T06:28:31;17.13;;;8.10;;
3589;SDS011;1809;48.470;9.226;2024-01-15T06:30:56;17.80;;;8.53;;
3589;SDS011;1809;48.470;9.226;2024-01-15T06:33:22;16.70;;;9.23;;
3589;SDS011;1809;48.470;9.226;2024-01-15T06:35:48;15.87;;;7.77;;
3589;SDS011;1809;48.470;9.226;2024-01-15T06:38:14;14.07;;;8.30;;
3589;SDS011;1809;48.470;9.226;2024-01-15T06:40:39;23.03;;;9.13;;
3589;SDS011;1809;48.470;9.226;2024-01-15T06:43:10;14.73;;;8.20;;
3589;SDS011;1809;48.470;9.226;2024-01-15T06:45:38;16.07;;;7.67;;
3589;SDS011;1809;48.470;9.226;2024-01-15T06:48:04;17.47;;;8.67;;
3589;SDS011;1809;48.470;9.226;2024-01-15T06:50:30;22.10;;;9.73;;
3589;SDS011;1809;48.470;9.226;2024-01-15T06:52:55;17.00;;;8.97;;
3589;SDS011;1809;48.470;9.226;2024-01-15T06:55:21;15.43;;;8.37;;
3589;SDS011;1809;48.470;9.226;2024-01-15T06:57:46;13.63;;;7.00;;
3589;SDS011;1809;48.470;9.226;2024-01-15T07:00:14;15.17;;;7.90;;
3589;SDS011;1809;48.470;9.226;2024-01-15T07:02:40;14.13;;;7.20;;
3589;SDS011;1809;48.470;9.226;2024-01-15T07:05:05;12.10;;;7.57;;
3589;SDS011;1809;48.470;9.226;2024-01-15T07:07:31;14.50;;;6.40;;
3589;SDS011;1809;48.470;9.226;2024-01-15T07:09:56;11.67;;;6.77;;
3589;SDS011;1809;48.470;9.226;2024-01-15T07:12:22;17.93;;;7.80;;
3589;SDS011;1809;48.470;9.226;2024-01-15T07:14:47;13.53;;;7.03;;
3589;SDS011;1809;48.470;9.226;2024-01-15T07:17:13;13.57;;;6.20;;
3589;SDS011;1809;48.470;9.226;2024-01-15T07:19:38;8.77;;;5.37;;
3589;SDS011;1809;48.470;9.226;2024-01-15T07:22:03;12.53;;;6.60;;
3589;SDS011;1809;48.470;9.226;2024-01-15T07:24:29;13.07;;;7.00;;
3589;SDS011;1809;48.470;9.226;2024-01-15T07:26:54;13.57;;;6.40;;
3589;SDS011;1809;48.470;9.226;2024-01-15T07:29:20;12.10;;;6.30;;
3589;SDS011;1809;48.470;9.226;2024-01-15T07:31:49;11.20;;;6.43;;
3589;SDS011;1809;48.470;9.226;2024-01-15T07:34:15;10.73;;;5.10;;
3589;SDS011;1809;48.470;9.226;2024-01-15T07:36:40;8.27;;;5.17;;
3589;SDS011;1809;48.470;9.226;2024-01-15T07:39:06;7.77;;;4.50;;
3589;SDS011;1809;48.470;9.226;2024-01-15T07:41:31;15.00;;;4.07;;
3589;SDS011;1809;48.470;9.226;2024-01-15T07:43:57;4.97;;;3.90;;
3589;SDS011;1809;48.470;9.226;2024-01-15T07:46:22;7.27;;;4.33;;
3589;SDS011;1809;48.470;9.226;2024-01-15T07:48:47;7.77;;;4.60;;
3589;SDS011;1809;48.470;9.226;2024-01-15T07:51:13;3.20;;;2.47;;
3589;SDS011;1809;48.470;9.226;2024-01-15T07:53:38;4.30;;;2.73;;
3589;SDS011;1809;48.470;9.226;2024-01-15T07:56:03;4.27;;;3.33;;
3589;SDS011;1809;48.470;9.226;2024-01-15T07:58:29;5.70;;;3.10;;
3589;SDS011;1809;48.470;9.226;2024-01-15T08:00:54;6.10;;;3.80;;
3589;SDS011;1809;48.470;9.226;2024-01-15T08:03:19;4.50;;;2.97;;
3589;SDS011;1809;48.470;9.226;2024-01-15T08:05:44;5.90;;;3.30;;
3589;SDS011;1809;48.470;9.226;2024-01-15T08:08:10;4.50;;;3.30;;
3589;SDS011;1809;48.470;9.226;2024-01-15T08:10:35;5.53;;;3.13;;
3589;SDS011;1809;48.470;9.226;2024-01-15T08:13:00;5.80;;;3.27;;
3589;SDS011;1809;48.470;9.226;2024-01-15T08:15:26;3.43;;;2.27;;
3589;SDS011;1809;48.470;9.226;2024-01-15T08:17:51;2.90;;;2.23;;
3589;SDS011;1809;48.470;9.226;2024-01-15T08:20:16;3.33;;;2.13;;
3589;SDS011;1809;48.470;9.226;2024-01-15T08:22:42;3.10;;;1.83;;
3589;SDS011;1809;48.470;9.226;2024-01-15T08:25:07;2.67;;;2.10;;
3589;SDS011;1809;48.470;9.226;2024-01-15T08:27:34;7.73;;;3.00;;
3589;SDS011;1809;48.470;9.226;2024-01-15T08:29:59;5.03;;;2.20;;
3589;SDS011;1809;48.470;9.226;2024-01-15T08:32:24;2.80;;;2.00;;
3589;SDS011;1809;48.470;9.226;2024-01-15T08:34:49;2.13;;;1.93;;
3589;SDS011;1809;48.470;9.226;2024-01-15T08:37:17;5.30;;;2.80;;
3589;SDS011;1809;48.470;9.226;2024-01-15T08:39:43;2.33;;;2.10;;
3589;SDS011;1809;48.470;9.226;2024-01-15T08:42:08;2.50;;;1.97;;
3589;SDS011;1809;48.470;9.226;2024-01-15T08:44:33;2.37;;;2.20;;
3589;SDS011;1809;48.470;9.226;2024-01-15T08:46:59;3.00;;;2.50;;
3589;SDS011;1809;48.470;9.226;2024-01-15T08:49:24;2.17;;;1.97;;
3589;SDS011;1809;48.470;9.226;2024-01-15T08:51:49;1.83;;;1.67;;
3589;SDS011;1809;48.470;9.226;2024-01-15T08:54:15;3.00;;;2.40;;
3589;SDS011;1809;48.470;9.226;2024-01-15T08:56:40;2.60;;;1.80;;
3589;SDS011;1809;48.470;9.226;2024-01-15T08:59:05;2.00;;;1.90;;
3589;SDS011;1809;48.470;9.226;2024-01-15T09:01:31;1.83;;;1.73;;
3589;SDS011;1809;48.470;9.226;2024-01-15T09:03:57;6.67;;;2.77;;
3589;SDS011;1809;48.470;9.226;2024-01-15T09:06:22;2.20;;;2.00;;
3589;SDS011;1809;48.470;9.226;2024-01-15T09:08:48;3.83;;;2.70;;
3589;SDS011;1809;48.470;9.226;2024-01-15T09:11:14;2.03;;;1.93;;
3589;SDS011;1809;48.470;9.226;2024-01-15T09:13:39;2.13;;;2.03;;
3589;SDS011;1809;48.470;9.226;2024-01-15T09:16:05;3.60;;;1.67;;
3589;SDS011;1809;48.470;9.226;2024-01-15T09:18:30;3.33;;;2.20;;
3589;SDS011;1809;48.470;9.226;2024-01-15T09:20:56;3.77;;;2.20;;
3589;SDS011;1809;48.470;9.226;2024-01-15T09:23:22;2.13;;;1.93;;
3589;SDS011;1809;48.470;9.226;2024-01-15T09:25:47;2.03;;;1.93;;
3589;SDS011;1809;48.470;9.226;2024-01-15T09:28:13;1.70;;;1.60;;
3589;SDS011;1809;48.470;9.226;2024-01-15T09:30:39;3.23;;;1.97;;
3589;SDS011;1809;48.470;9.226;2024-01-15T09:33:04;8.83;;;4.53;;
3589;SDS011;1809;48.470;9.226;2024-01-15T09:35:30;1.63;;;1.53;;
3589;SDS011;1809;48.470;9.226;2024-01-15T09:37:55;6.20;;;1.60;;
3589;SDS011;1809;48.470;9.226;2024-01-15T09:40:20;3.27;;;2.10;;
3589;SDS011;1809;48.470;9.226;2024-01-15T09:42:46;2.00;;;1.90;;
3589;SDS011;1809;48.470;9.226;2024-01-15T09:45:12;2.50;;;2.30;;
3589;SDS011;1809;48.470;9.226;2024-01-15T09:47:38;4.13;;;2.37;;
3589;SDS011;1809;48.470;9.226;2024-01-15T09:50:05;3.80;;;2.47;;
3589;SDS011;1809;48.470;9.226;2024-01-15T09:52:31;3.87;;;3.10;;
3589;SDS011;1809;48.470;9.226;2024-01-15T09:54:57;2.27;;;2.10;;
3589;SDS011;1809;48.470;9.226;2024-01-15T09:57:24;3.00;;;1.70;;
3589;SDS011;1809;48.470;9.226;2024-01-15T09:59:50;2.70;;;1.83;;
3589;SDS011;1809;48.470;9.226;2024-01-15T10:02:17;2.40;;;2.20;;
3589;SDS011;1809;48.470;9.226;2024-01-15T10:04:43;4.00;;;2.43;;
3589;SDS011;1809;48.470;9.226;2024-01-15T10:07:09;2.10;;;1.90;;
3589;SDS011;1809;48.470;9.226;2024-01-15T10:09:40;2.47;;;2.27;;
3589;SDS011;1809;48.470;9.226;2024-01-15T10:12:05;3.00;;;2.20;;
3589;SDS011;1809;48.470;9.226;2024-01-15T10:14:31;2.03;;;1.90;;
3589;SDS011;1809;48.470;9.226;2024-01-15T10:16:57;12.37;;;7.10;;
3589;SDS011;1809;48.470;9.226;2024-01-15T10:19:23;2.20;;;2.10;;
3589;SDS011;1809;48.470;9.226;2024-01-15T10:21:48;1.37;;;1.27;;
3589;SDS011;1809;48.470;9.226;2024-01-15T10:24:14;3.53;;;2.80;;
3589;SDS011;1809;48.470;9.226;2024-01-15T10:26:39;1.67;;;1.57;;
3589;SDS011;1809;48.470;9.226;2024-01-15T10:29:04;6.07;;;2.00;;
3589;SDS011;1809;48.470;9.226;2024-01-15T10:31:30;2.90;;;1.83;;
3589;SDS011;1809;48.470;9.226;2024-01-15T10:34:01;2.30;;;1.97;;
3589;SDS011;1809;48.470;9.226;2024-01-15T10:36:36;5.07;;;1.77;;
3589;SDS011;1809;48.470;9.226;2024-01-15T10:39:04;9.20;;;2.33;;
3589;SDS011;1809;48.470;9.226;2024-01-15T10:41:32;2.13;;;2.03;;
3589;SDS011;1809;48.470;9.226;2024-01-15T10:43:57;1.50;;;1.30;;
3589;SDS011;1809;48.470;9.226;2024-01-15T10:46:23;1.73;;;1.63;;
3589;SDS011;1809;48.470;9.226;2024-01-15T10:48:50;4.23;;;2.50;;
3589;SDS011;1809;48.470;9.226;2024-01-15T10:51:16;5.53;;;2.27;;
3589;SDS011;1809;48.470;9.226;2024-01-15T10:53:41;3.37;;;1.90;;
3589;SDS011;1809;48.470;9.226;2024-01-15T10:56:07;6.03;;;2.67;;
3589;SDS011;1809;48.470;9.226;2024-01-15T10:58:35;3.17;;;2.70;;
3589;SDS011;1809;48.470;9.226;2024-01-15T11:01:02;5.23;;;3.23;;
3589;SDS011;1809;48.470;9.226;2024-01-15T11:03:29;3.50;;;3.00;;
3589;SDS011;1809;48.470;9.226;2024-01-15T11:05:55;2.60;;;2.40;;
3589;SDS011;1809;48.470;9.226;2024-01-15T11:08:20;3.73;;;3.00;;
3589;SDS011;1809;48.470;9.226;2024-01-15T11:10:47;3.43;;;3.13;;
3589;SDS011;1809;48.470;9.226;2024-01-15T11:13:39;3.73;;;2.97;;
3589;SDS011;1809;48.470;9.226;2024-01-15T11:16:06;5.47;;;2.97;;
3589;SDS011;1809;48.470;9.226;2024-01-15T11:18:37;7.30;;;3.37;;
3589;SDS011;1809;48.470;9.226;2024-01-15T11:26:26;4.20;;;2.70;;
3589;SDS011;1809;48.470;9.226;2024-01-15T11:28:54;2.63;;;2.43;;
3589;SDS011;1809;48.470;9.226;2024-01-15T11:31:19;3.27;;;2.83;;
3589;SDS011;1809;48.470;9.226;2024-01-15T11:33:49;7.40;;;4.27;;
3589;SDS011;1809;48.470;9.226;2024-01-15T11:36:15;3.27;;;2.70;;
3589;SDS011;1809;48.470;9.226;2024-01-15T11:38:40;4.37;;;3.40;;
3589;SDS011;1809;48.470;9.226;2024-01-15T11:41:14;5.10;;;2.90;;
3589;SDS011;1809;48.470;9.226;2024-01-15T11:43:41;2.80;;;2.40;;
3589;SDS011;1809;48.470;9.226;2024-01-15T11:46:08;2.20;;;2.00;;
3589;SDS011;1809;48.470;9.226;2024-01-15T11:48:46;3.67;;;2.80;;
3589;SDS011;1809;48.470;9.226;2024-01-15T11:51:20;5.67;;;2.27;;
3589;SDS011;1809;48.470;9.226;2024-01-15T11:53:47;2.20;;;1.83;;
3589;SDS011;1809;48.470;9.226;2024-01-15T11:56:17;4.80;;;3.17;;
3589;SDS011;1809;48.470;9.226;2024-01-15T11:58:43;2.30;;;2.10;;
3589;SDS011;1809;48.470;9.226;2024-01-15T12:01:08;2.53;;;2.20;;
3589;SDS011;1809;48.470;9.226;2024-01-15T12:03:35;2.67;;;2.47;;
3589;SDS011;1809;48.470;9.226;2024-01-15T12:06:00;2.50;;;1.97;;
3589;SDS011;1809;48.470;9.226;2024-01-15T12:08:26;7.77;;;6.33;;
3589;SDS011;1809;48.470;9.226;2024-01-15T12:10:52;3.13;;;2.77;;
3589;SDS011;1809;48.470;9.226;2024-01-15T12:13:18;5.50;;;2.60;;
3589;SDS011;1809;48.470;9.226;2024-01-15T12:15:44;4.30;;;2.63;;
3589;SDS011;1809;48.470;9.226;2024-01-15T12:18:12;2.60;;;1.90;;
3589;SDS011;1809;48.470;9.226;2024-01-15T12:20:39;3.10;;;2.33;;
3589;SDS011;1809;48.470;9.226;2024-01-15T12:23:05;5.13;;;3.10;;
3589;SDS011;1809;48.470;9.226;2024-01-15T12:25:35;2.57;;;2.40;;
3589;SDS011;1809;48.470;9.226;2024-01-15T12:28:00;3.30;;;2.10;;
3589;SDS011;1809;48.470;9.226;2024-01-15T12:30:26;3.00;;;2.17;;
3589;SDS011;1809;48.470;9.226;2024-01-15T12:32:52;3.00;;;2.80;;
3589;SDS011;1809;48.470;9.226;2024-01-15T12:35:18;2.60;;;2.40;;
3589;SDS011;1809;48.470;9.226;2024-01-15T12:37:43;2.80;;;2.17;;
3589;SDS011;1809;48.470;9.226;2024-01-15T12:40:11;4.10;;;2.50;;
3589;SDS011;1809;48.470;9.226;2024-01-15T12:42:37;4.83;;;3.17;;
3589;SDS011;1809;48.470;9.226;2024-01-15T12:45:07;2.50;;;2.33;;
3589;SDS011;1809;48.470;9.226;2024-01-15T12:47:34;2.43;;;2.00;;
3589;SDS011;1809;48.470;9.226;2024-01-15T12:49:59;3.83;;;2.23;;
3589;SDS011;1809;48.470;9.226;2024-01-15T12:52:28;4.47;;;3.20;;
3589;SDS011;1809;48.470;9.226;2024-01-15T12:54:54;5.70;;;3.53;;
3589;SDS011;1809;48.470;9.226;2024-01-15T12:57:19;5.50;;;2.20;;
3589;SDS011;1809;48.470;9.226;2024-01-15T12:59:45;4.53;;;3.00;;
3589;SDS011;1809;48.470;9.226;2024-01-15T13:02:11;4.53;;;2.33;;
3589;SDS011;1809;48.470;9.226;2024-01-15T13:04:36;9.00;;;3.83;;
3589;SDS011;1809;48.470;9.226;2024-01-15T13:07:02;3.97;;;2.77;;
3589;SDS011;1809;48.470;9.226;2024-01-15T13:09:27;4.43;;;3.73;;
3589;SDS011;1809;48.470;9.226;2024-01-15T13:11:52;3.43;;;2.53;;
3589;SDS011;1809;48.470;9.226;2024-01-15T13:14:18;8.83;;;5.73;;
3589;SDS011;1809;48.470;9.226;2024-01-15T13:16:43;3.97;;;3.13;;
3589;SDS011;1809;48.470;9.226;2024-01-15T13:19:09;5.07;;;3.30;;
3589;SDS011;1809;48.470;9.226;2024-01-15T13:21:38;6.70;;;5.20;;
3589;SDS011;1809;48.470;9.226;2024-01-15T13:24:05;5.73;;;4.83;;
3589;SDS011;1809;48.470;9.226;2024-01-15T13:26:33;21.70;;;13.27;;
3589;SDS011;1809;48.470;9.226;2024-01-15T13:29:00;15.57;;;9.30;;
3589;SDS011;1809;48.470;9.226;2024-01-15T13:31:26;11.27;;;6.80;;
3589;SDS011;1809;48.470;9.226;2024-01-15T13:33:52;6.90;;;4.90;;
3589;SDS011;1809;48.470;9.226;2024-01-15T13:36:18;7.90;;;5.27;;
3589;SDS011;1809;48.470;9.226;2024-01-15T13:38:43;6.93;;;4.47;;
3589;SDS011;1809;48.470;9.226;2024-01-15T13:41:08;5.63;;;3.73;;
3589;SDS011;1809;48.470;9.226;2024-01-15T13:43:34;5.83;;;4.40;;
3589;SDS011;1809;48.470;9.226;2024-01-15T13:45:59;6.30;;;3.50;;
3589;SDS011;1809;48.470;9.226;2024-01-15T13:48:25;13.17;;;7.03;;
3589;SDS011;1809;48.470;9.226;2024-01-15T13:50:51;7.70;;;4.57;;
3589;SDS011;1809;48.470;9.226;2024-01-15T13:53:17;5.70;;;3.87;;
3589;SDS011;1809;48.470;9.226;2024-01-15T13:55:44;10.73;;;4.27;;
3589;SDS011;1809;48.470;9.226;2024-01-15T13:58:09;16.30;;;5.00;;
3589;SDS011;1809;48.470;9.226;2024-01-15T14:00:34;6.90;;;4.63;;
3589;SDS011;1809;48.470;9.226;2024-01-15T14:03:00;7.77;;;4.37;;
3589;SDS011;1809;48.470;9.226;2024-01-15T14:05:25;10.97;;;6.10;;
3589;SDS011;1809;48.470;9.226;2024-01-15T14:07:51;15.70;;;6.80;;
3589;SDS011;1809;48.470;9.226;2024-01-15T14:10:16;10.20;;;6.00;;
3589;SDS011;1809;48.470;9.226;2024-01-15T14:12:42;7.17;;;4.00;;
3589;SDS011;1809;48.470;9.226;2024-01-15T14:15:08;4.43;;;3.50;;
3589;SDS011;1809;48.470;9.226;2024-01-15T14:17:34;8.90;;;4.80;;
3589;SDS011;1809;48.470;9.226;2024-01-15T14:19:59;6.93;;;4.03;;
3589;SDS011;1809;48.470;9.226;2024-01-15T14:22:24;9.17;;;5.57;;
3589;SDS011;1809;48.470;9.226;2024-01-15T14:24:50;5.67;;;3.83;;
3589;SDS011;1809;48.470;9.226;2024-01-15T14:27:16;7.53;;;4.57;;
3589;SDS011;1809;48.470;9.226;2024-01-15T14:29:41;7.17;;;4.53;;
3589;SDS011;1809;48.470;9.226;2024-01-15T14:32:07;6.20;;;4.40;;
3589;SDS011;1809;48.470;9.226;2024-01-15T14:34:32;6.50;;;3.77;;
3589;SDS011;1809;48.470;9.226;2024-01-15T14:36:57;9.03;;;5.47;;
3589;SDS011;1809;48.470;9.226;2024-01-15T14:39:23;8.57;;;5.10;;
3589;SDS011;1809;48.470;9.226;2024-01-15T14:41:48;7.60;;;4.40;;
3589;SDS011;1809;48.470;9.226;2024-01-15T14:44:14;5.97;;;4.17;;
3589;SDS011;1809;48.470;9.226;2024-01-15T14:46:39;7.80;;;5.83;;
3589;SDS011;1809;48.470;9.226;2024-01-15T14:49:05;8.40;;;4.97;;
3589;SDS011;1809;48.470;9.226;2024-01-15T14:51:30;6.83;;;4.83;;
3589;SDS011;1809;48.470;9.226;2024-01-15T14:53:56;7.40;;;4.73;;
3589;SDS011;1809;48.470;9.226;2024-01-15T14:56:21;10.97;;;4.70;;
3589;SDS011;1809;48.470;9.226;2024-01-15T14:58:47;5.63;;;4.17;;
3589;SDS011;1809;48.470;9.226;2024-01-15T15:01:12;8.10;;;4.60;;
3589;SDS011;1809;48.470;9.226;2024-01-15T15:03:38;13.77;;;6.27;;